createdAt,value
2018-07-13T00:02:19.202Z,22.20
2018-07-13T00:04:47.671Z,23.53
2018-07-13T00:07:15.675Z,25.17
2018-07-13T00:09:43.458Z,23.83
2018-07-13T00:12:11.291Z,25.90
2018-07-13T00:14:43.543Z,25.70
2018-07-13T00:17:11.440Z,21.93
2018-07-13T00:19:39.320Z,25.10
2018-07-13T00:22:07.212Z,21.47
2018-07-13T00:24:35.044Z,23.73
2018-07-13T00:27:02.940Z,23.57
2018-07-13T00:29:30.705Z,22.60
2018-07-13T00:31:58.547Z,25.47
2018-07-13T00:34:27.131Z,22.47
2018-07-13T00:36:54.817Z,24.47
2018-07-13T00:39:22.750Z,24.47
2018-07-13T00:41:51.895Z,23.40
2018-07-13T00:44:20.007Z,22.67
2018-07-13T00:46:48.515Z,24.33
2018-07-13T00:49:16.884Z,24.23
2018-07-13T00:51:44.962Z,26.50
2018-07-13T00:54:12.886Z,23.00
2018-07-13T00:56:40.725Z,23.90
2018-07-13T00:59:08.615Z,24.23
2018-07-13T01:01:37.241Z,24.87
2018-07-13T01:04:05.189Z,26.70
2018-07-13T01:06:32.892Z,24.87
2018-07-13T01:09:00.695Z,27.17
2018-07-13T01:11:28.598Z,30.93
2018-07-13T01:13:56.400Z,28.97
2018-07-13T01:16:24.154Z,27.13
2018-07-13T01:18:51.919Z,34.17
2018-07-13T01:21:19.758Z,26.80
2018-07-13T01:23:48.353Z,30.33
2018-07-13T01:26:16.335Z,33.43
2018-07-13T01:28:44.208Z,33.20
2018-07-13T01:31:12.115Z,32.93
2018-07-13T01:33:39.975Z,29.33
2018-07-13T01:36:07.829Z,29.30
2018-07-13T01:38:35.726Z,33.00
2018-07-13T01:41:03.474Z,29.23
2018-07-13T01:43:31.446Z,33.23
2018-07-13T01:45:59.284Z,37.47
2018-07-13T01:48:27.066Z,38.53
2018-07-13T01:50:54.715Z,34.50
2018-07-13T01:53:23.111Z,32.50
2018-07-13T01:55:50.971Z,40.00
2018-07-13T01:58:19.459Z,43.00
2018-07-13T02:00:47.900Z,39.33
2018-07-13T02:03:15.708Z,43.87
2018-07-13T02:05:43.611Z,43.80
2018-07-13T02:08:11.438Z,42.00
2018-07-13T02:10:39.313Z,50.60
2018-07-13T02:13:07.180Z,41.63
2018-07-13T02:15:34.965Z,45.10
2018-07-13T02:18:03.530Z,48.37
2018-07-13T02:20:31.288Z,65.27
2018-07-13T02:22:59.143Z,59.07
2018-07-13T02:25:27.070Z,58.37
2018-07-13T02:27:54.805Z,60.20
2018-07-13T02:30:22.676Z,55.40
2018-07-13T02:32:50.533Z,51.03
2018-07-13T02:35:18.603Z,57.40
2018-07-13T02:37:46.604Z,56.70
2018-07-13T02:40:14.590Z,55.03
2018-07-13T02:42:42.400Z,60.83
2018-07-13T02:45:10.315Z,57.43
2018-07-13T02:47:38.141Z,70.37
2018-07-13T02:50:06.099Z,67.97
2018-07-13T02:52:34.159Z,71.70
2018-07-13T02:55:02.775Z,71.97
2018-07-13T02:57:30.676Z,73.27
2018-07-13T02:59:58.525Z,72.87
2018-07-13T03:02:26.567Z,60.63
2018-07-13T03:04:54.238Z,63.83
2018-07-13T03:07:22.140Z,64.70
2018-07-13T03:09:50.003Z,68.80
2018-07-13T03:12:18.955Z,77.50
2018-07-13T03:14:46.735Z,86.33
2018-07-13T03:17:14.929Z,82.97
2018-07-13T03:19:43.136Z,69.93
2018-07-13T03:22:10.970Z,79.17
2018-07-13T03:24:38.735Z,102.80
2018-07-13T03:27:06.592Z,91.50
2018-07-13T03:29:34.353Z,101.03
2018-07-13T03:32:02.769Z,103.33
2018-07-13T03:34:30.631Z,96.70
2018-07-13T03:36:58.552Z,95.87
2018-07-13T03:39:26.430Z,93.97
2018-07-13T03:41:54.491Z,90.63
2018-07-13T03:44:22.299Z,95.00
2018-07-13T03:46:50.212Z,103.73
2018-07-13T03:49:17.951Z,106.30
2018-07-13T03:51:46.686Z,82.83
2018-07-13T03:54:14.829Z,86.47
2018-07-13T03:56:42.761Z,77.17
2018-07-13T03:59:10.627Z,76.63
2018-07-13T04:01:38.972Z,71.57
2018-07-13T04:04:06.799Z,74.53
2018-07-13T04:06:35.158Z,61.23
2018-07-13T04:09:03.088Z,52.47
2018-07-13T04:11:30.960Z,58.83
2018-07-13T04:13:58.767Z,50.37
2018-07-13T04:16:26.624Z,47.93
2018-07-13T04:18:54.361Z,48.97
2018-07-13T04:21:22.269Z,49.23
2018-07-13T04:23:50.196Z,47.23
2018-07-13T04:26:18.667Z,43.00
2018-07-13T04:28:46.612Z,40.93
2018-07-13T04:31:14.966Z,44.33
2018-07-13T04:33:42.880Z,44.03
2018-07-13T04:36:10.794Z,41.50
2018-07-13T04:38:38.637Z,34.60
2018-07-13T04:41:06.452Z,35.07
2018-07-13T04:43:34.104Z,38.20
2018-07-13T04:46:01.952Z,36.70
2018-07-13T04:48:29.837Z,32.53
2018-07-13T04:50:57.684Z,36.43
2018-07-13T04:53:25.632Z,36.27
2018-07-13T04:55:53.420Z,37.10
2018-07-13T04:58:21.472Z,36.90
2018-07-13T05:00:50.513Z,35.20
2018-07-13T05:03:18.332Z,47.97
2018-07-13T05:05:46.242Z,38.33
2018-07-13T05:08:14.105Z,36.43
2018-07-13T05:10:42.273Z,37.67
2018-07-13T05:13:10.140Z,32.43
2018-07-13T05:15:38.768Z,35.70
2018-07-13T05:18:06.588Z,35.17
2018-07-13T05:20:34.373Z,37.80
2018-07-13T05:23:02.164Z,35.63
2018-07-13T05:25:30.132Z,37.40
2018-07-13T05:27:58.084Z,34.97
2018-07-13T05:30:26.051Z,37.83
2018-07-13T05:32:53.873Z,34.40
2018-07-13T05:35:21.755Z,38.43
2018-07-13T05:37:49.652Z,35.63
2018-07-13T05:40:18.179Z,34.63
2018-07-13T05:42:46.000Z,35.00
2018-07-13T05:45:14.597Z,39.33
2018-07-13T05:47:42.550Z,33.73
2018-07-13T05:50:10.524Z,30.90
2018-07-13T05:52:38.416Z,32.67
2018-07-13T05:55:06.262Z,26.93
2018-07-13T05:57:34.102Z,28.33
2018-07-13T06:00:01.992Z,30.57
2018-07-13T06:02:30.073Z,28.40
2018-07-13T06:04:57.938Z,30.03
2018-07-13T06:07:25.789Z,32.17
2018-07-13T06:09:54.722Z,30.07
2018-07-13T06:12:22.620Z,26.27
2018-07-13T06:14:50.500Z,25.47
2018-07-13T06:17:18.301Z,29.72
2018-07-13T06:19:46.158Z,27.48
2018-07-13T06:22:13.939Z,24.82
2018-07-13T06:24:41.902Z,21.35
2018-07-13T06:27:09.754Z,20.15
2018-07-13T06:29:37.736Z,20.02
2018-07-13T06:32:05.573Z,20.30
2018-07-13T06:34:34.406Z,20.50
2018-07-13T06:37:02.288Z,22.50
2018-07-13T06:39:30.316Z,21.75
2018-07-13T06:41:58.212Z,19.25
2018-07-13T06:44:27.994Z,19.90
2018-07-13T06:46:57.440Z,21.62
2018-07-13T06:49:29.806Z,24.27
2018-07-13T06:51:57.747Z,21.93
2018-07-13T06:54:25.647Z,25.50
2018-07-13T06:56:53.647Z,18.75
2018-07-13T06:59:21.583Z,22.25
2018-07-13T07:01:50.157Z,24.75
2018-07-13T07:04:26.220Z,17.30
2018-07-13T07:06:54.691Z,16.20
2018-07-13T07:09:22.773Z,17.87
2018-07-13T07:11:55.899Z,20.43
2018-07-13T07:14:24.520Z,16.65
2018-07-13T07:16:52.460Z,20.08
2018-07-13T07:19:20.458Z,19.12
2018-07-13T07:21:48.374Z,17.23
2018-07-13T07:24:16.485Z,17.32
2018-07-13T07:26:44.794Z,15.85
2018-07-13T07:29:12.683Z,17.30
2018-07-13T07:31:40.572Z,12.45
2018-07-13T07:34:09.364Z,15.23
2018-07-13T07:36:38.120Z,21.00
2018-07-13T07:39:08.885Z,8.08
2018-07-13T07:41:36.731Z,9.60
2018-07-13T07:44:04.624Z,14.53
2018-07-13T07:46:32.566Z,10.72
2018-07-13T07:49:00.567Z,12.75
2018-07-13T07:51:28.435Z,6.90
2018-07-13T07:53:56.504Z,6.53
2018-07-13T07:56:24.268Z,6.40
2018-07-13T07:58:52.101Z,6.22
2018-07-13T08:01:20.002Z,6.60
2018-07-13T08:03:47.861Z,7.12
2018-07-13T08:06:15.931Z,6.42
2018-07-13T08:08:44.443Z,8.55
2018-07-13T08:11:13.692Z,5.10
2018-07-13T08:13:42.091Z,9.90
2018-07-13T08:16:10.491Z,7.30
2018-07-13T08:18:38.356Z,7.62
2018-07-13T08:21:07.019Z,4.95
2018-07-13T08:23:34.764Z,4.83
2018-07-13T08:26:03.814Z,4.95
2018-07-13T08:28:32.484Z,5.50
2018-07-13T08:31:02.603Z,5.10
2018-07-13T08:33:30.500Z,4.25
2018-07-13T08:35:58.495Z,4.20
2018-07-13T08:38:26.412Z,4.03
2018-07-13T08:40:54.211Z,3.75
2018-07-13T08:43:22.043Z,10.25
2018-07-13T08:45:50.190Z,4.17
2018-07-13T08:48:17.987Z,4.75
2018-07-13T08:50:45.879Z,5.25
2018-07-13T08:53:13.716Z,7.03
2018-07-13T08:55:41.874Z,5.87
2018-07-13T08:58:09.905Z,6.53
2018-07-13T09:00:38.455Z,5.80
2018-07-13T09:03:06.532Z,7.15
2018-07-13T09:05:34.403Z,6.00
2018-07-13T09:08:02.613Z,5.83
2018-07-13T09:10:42.948Z,8.60
2018-07-13T09:13:10.813Z,6.10
2018-07-13T09:15:39.739Z,6.20
2018-07-13T09:18:10.876Z,6.65
2018-07-13T09:20:38.801Z,5.87
2018-07-13T09:23:06.705Z,5.17
2018-07-13T09:25:35.295Z,4.40
2018-07-13T09:28:03.146Z,5.05
2018-07-13T09:30:31.007Z,5.37
2018-07-13T09:32:58.767Z,6.65
2018-07-13T09:35:26.622Z,5.58
2018-07-13T09:37:54.624Z,4.55
2018-07-13T09:40:22.458Z,4.75
2018-07-13T09:42:50.327Z,5.20
2018-07-13T09:45:18.188Z,7.17
2018-07-13T09:47:47.665Z,5.85
2018-07-13T09:50:15.635Z,5.50
2018-07-13T09:52:43.575Z,5.12
2018-07-13T09:55:12.498Z,5.87
2018-07-13T09:57:41.178Z,7.47
2018-07-13T10:00:10.266Z,5.72
2018-07-13T10:02:38.636Z,6.00
2018-07-13T10:05:06.492Z,5.00
2018-07-13T10:07:35.471Z,7.97
2018-07-13T10:10:03.351Z,4.50
2018-07-13T10:12:31.246Z,5.42
2018-07-13T10:14:59.356Z,4.87
2018-07-13T10:17:27.252Z,4.85
2018-07-13T10:19:58.323Z,4.83
2018-07-13T10:22:29.372Z,10.78
2018-07-13T10:24:58.563Z,9.25
2018-07-13T10:33:19.572Z,8.03
2018-07-13T10:35:52.057Z,8.13
2018-07-13T10:38:20.055Z,8.53
2018-07-13T10:40:48.013Z,7.25
2018-07-13T10:43:15.975Z,7.45
2018-07-13T10:45:43.979Z,7.55
2018-07-13T10:48:11.910Z,8.98
2018-07-13T10:50:40.388Z,7.33
2018-07-13T10:53:11.709Z,7.40
2018-07-13T10:55:40.363Z,7.22
2018-07-13T10:58:08.605Z,6.83
2018-07-13T11:00:39.338Z,7.05
2018-07-13T11:03:07.409Z,7.33
2018-07-13T11:05:35.280Z,8.50
2018-07-13T11:08:04.360Z,11.70
2018-07-13T11:10:32.245Z,10.25
2018-07-13T11:13:00.126Z,9.25
2018-07-13T11:15:27.995Z,8.18
2018-07-13T11:18:00.987Z,8.25
2018-07-13T11:20:28.957Z,11.48
2018-07-13T11:23:26.059Z,9.98
2018-07-13T11:25:57.207Z,9.90
2018-07-13T11:28:32.448Z,8.23
2018-07-13T11:31:02.501Z,7.33
2018-07-13T11:49:47.566Z,7.62
2018-07-13T11:52:16.316Z,7.67
2018-07-13T11:54:45.061Z,8.45
2018-07-13T11:57:24.711Z,8.73
2018-07-13T11:59:52.703Z,9.25
2018-07-13T12:02:20.731Z,7.92
2018-07-13T12:04:48.728Z,8.00
2018-07-13T12:07:16.726Z,8.75
2018-07-13T12:09:44.585Z,7.40
2018-07-13T12:12:12.564Z,8.35
2018-07-13T12:14:40.532Z,7.80
2018-07-13T12:17:08.519Z,8.75
2018-07-13T12:19:37.173Z,8.98
2018-07-13T12:22:05.364Z,8.65
2018-07-13T12:24:33.471Z,9.60
2018-07-13T12:27:01.557Z,9.80
2018-07-13T12:29:29.827Z,8.25
2018-07-13T12:31:59.280Z,8.63
2018-07-13T12:34:27.295Z,8.28
2018-07-13T12:36:56.172Z,9.18
2018-07-13T12:39:26.172Z,8.13
2018-07-13T12:41:54.434Z,9.23
2018-07-13T12:44:22.313Z,9.05
2018-07-13T12:46:50.275Z,8.78
2018-07-13T12:49:18.196Z,11.80
2018-07-13T12:51:47.088Z,8.48
2018-07-13T12:54:16.242Z,8.60
2018-07-13T12:56:44.719Z,8.88
2018-07-13T12:59:13.592Z,8.03
2018-07-13T13:01:42.375Z,8.53
2018-07-13T13:04:10.683Z,10.15
2018-07-13T13:06:39.110Z,8.18
2018-07-13T13:09:08.112Z,12.53
2018-07-13T13:11:36.417Z,8.30
2018-07-13T13:14:04.607Z,7.42
2018-07-13T13:16:32.640Z,7.97
2018-07-13T13:19:00.635Z,7.97
2018-07-13T13:21:29.136Z,6.75
2018-07-13T13:23:57.777Z,8.75
2018-07-13T13:26:26.717Z,7.60
2018-07-13T13:28:54.827Z,7.25
2018-07-13T13:31:23.052Z,6.90
2018-07-13T13:33:51.311Z,6.95
2018-07-13T13:36:19.202Z,6.42
2018-07-13T13:38:47.693Z,7.12
2018-07-13T13:41:15.559Z,5.95
2018-07-13T13:43:43.584Z,7.85
2018-07-13T13:46:12.735Z,6.35
2018-07-13T13:48:40.702Z,7.62
2018-07-13T13:51:09.371Z,5.70
2018-07-13T13:53:38.817Z,6.08
2018-07-13T13:56:08.627Z,9.83
2018-07-13T13:58:37.811Z,6.40
2018-07-13T14:01:07.081Z,5.87
2018-07-13T14:03:35.622Z,5.35
2018-07-13T14:06:03.610Z,5.80
2018-07-13T14:08:31.432Z,5.42
2018-07-13T14:10:59.463Z,6.50
2018-07-13T14:13:27.341Z,5.75
2018-07-13T14:15:56.059Z,8.05
2018-07-13T14:18:23.998Z,8.25
2018-07-13T14:20:52.313Z,6.00
2018-07-13T14:23:20.180Z,6.30
2018-07-13T14:25:48.095Z,7.55
2018-07-13T14:28:16.192Z,6.08
2018-07-13T14:30:44.573Z,6.20
2018-07-13T14:33:13.100Z,5.80
2018-07-13T14:35:41.263Z,5.53
2018-07-13T14:38:09.502Z,5.67
2018-07-13T14:40:37.995Z,5.53
2018-07-13T14:43:06.290Z,5.40
2018-07-13T14:45:34.653Z,11.70
2018-07-13T14:48:07.742Z,9.68
2018-07-13T14:50:37.747Z,11.60
2018-07-13T15:12:36.831Z,10.80
2018-07-13T15:15:05.746Z,4.47
2018-07-13T15:17:45.085Z,5.40
2018-07-13T15:20:15.004Z,6.40
2018-07-13T15:22:45.740Z,4.70
2018-07-13T15:25:15.440Z,4.87
2018-07-13T15:27:43.450Z,4.33
2018-07-13T15:30:15.293Z,3.60
2018-07-13T15:32:47.169Z,3.63
2018-07-13T15:35:15.165Z,3.93
2018-07-13T15:37:44.454Z,3.67
2018-07-13T15:40:14.373Z,3.43
2018-07-13T15:42:44.033Z,3.30
2018-07-13T15:45:13.032Z,3.83
2018-07-13T15:47:45.398Z,4.53
2018-07-13T15:50:14.109Z,3.40
2018-07-13T15:52:42.195Z,3.37
2018-07-13T15:55:13.470Z,4.33
2018-07-13T15:57:41.340Z,4.13
2018-07-13T16:00:10.285Z,3.73
2018-07-13T16:02:39.661Z,6.87
2018-07-13T16:05:17.738Z,3.60
2018-07-13T16:07:46.454Z,3.60
2018-07-13T16:10:16.574Z,4.20
2018-07-13T16:12:45.947Z,3.80
2018-07-13T16:15:33.474Z,4.77
2018-07-13T16:50:54.671Z,4.03
2018-07-13T16:53:22.700Z,4.80
2018-07-13T16:55:51.623Z,4.90
2018-07-13T17:14:35.890Z,4.63
2018-07-13T17:17:06.655Z,7.67
2018-07-13T17:19:43.502Z,4.70
2018-07-13T17:22:14.004Z,5.83
2018-07-13T17:24:46.163Z,5.15
2018-07-13T17:27:17.372Z,5.83
2018-07-13T17:29:47.733Z,6.45
2018-07-13T17:32:16.861Z,4.42
2018-07-13T17:34:44.886Z,6.55
2018-07-13T17:37:14.237Z,4.87
2018-07-13T17:39:42.831Z,4.30
2018-07-13T17:42:10.724Z,3.83
2018-07-13T17:44:38.951Z,5.90
2018-07-13T17:47:08.521Z,4.53
2018-07-13T17:49:36.539Z,3.70
2018-07-13T17:52:04.519Z,5.83
2018-07-13T17:54:33.866Z,4.83
2018-07-13T17:57:02.723Z,4.50
2018-07-13T17:59:30.579Z,5.03
2018-07-13T18:01:58.521Z,4.30
2018-07-13T18:04:27.380Z,3.70
2018-07-13T18:06:57.061Z,3.53
2018-07-13T18:09:27.701Z,4.10
2018-07-13T18:41:24.367Z,4.60
2018-07-13T18:43:54.101Z,4.77
2018-07-13T18:46:28.091Z,4.83
2018-07-13T18:48:59.301Z,4.70
2018-07-13T18:51:32.325Z,4.87
2018-07-13T18:54:01.705Z,4.97
2018-07-13T18:56:29.595Z,4.57
2018-07-13T18:58:57.520Z,6.57
2018-07-13T19:01:25.626Z,4.33
2018-07-13T19:03:53.685Z,4.50
2018-07-13T19:06:22.243Z,5.27
2018-07-13T19:08:50.245Z,6.90
2018-07-13T19:11:18.974Z,5.13
2018-07-13T19:13:48.336Z,4.93
2018-07-13T19:16:16.200Z,4.87
2018-07-13T19:18:44.580Z,4.60
2018-07-13T19:21:12.441Z,4.70
2018-07-13T19:23:40.248Z,4.13
2018-07-13T19:26:08.093Z,3.77
2018-07-13T19:28:37.740Z,4.53
2018-07-13T19:31:05.975Z,4.97
2018-07-13T19:33:43.934Z,4.97
2018-07-13T19:36:14.032Z,5.00
2018-07-13T19:38:42.380Z,5.83
2018-07-13T19:41:10.335Z,4.67
2018-07-13T19:43:38.627Z,6.40
2018-07-13T19:46:07.449Z,6.70
2018-07-13T19:48:40.074Z,4.80
2018-07-13T19:51:08.086Z,6.60
2018-07-13T19:53:35.997Z,5.93
2018-07-13T19:56:04.627Z,4.73
2018-07-13T19:58:32.927Z,4.10
2018-07-13T20:01:01.892Z,5.17
2018-07-13T20:03:30.054Z,5.67
2018-07-13T20:06:00.795Z,4.20
2018-07-13T20:08:31.734Z,3.90
2018-07-13T20:10:59.656Z,4.50
2018-07-13T20:13:27.952Z,4.73
2018-07-13T21:15:16.285Z,4.07
2018-07-13T21:18:04.095Z,4.37
2018-07-13T21:40:32.909Z,4.43
2018-07-13T21:43:01.503Z,4.63
2018-07-13T21:45:29.990Z,5.67
2018-07-13T21:48:25.314Z,5.37
2018-07-13T21:51:18.618Z,5.13
2018-07-13T21:54:04.513Z,5.27
2018-07-13T21:56:51.571Z,4.77
2018-07-13T21:59:20.599Z,5.07
2018-07-13T22:02:05.249Z,7.07
2018-07-13T22:04:40.108Z,4.53
2018-07-13T22:07:26.512Z,5.93
2018-07-13T22:10:03.095Z,5.60
2018-07-13T23:14:41.753Z,6.13
2018-07-13T23:17:10.883Z,5.50
2018-07-13T23:19:49.584Z,6.30
2018-07-13T23:22:35.872Z,5.70
2018-07-13T23:25:24.815Z,5.33
2018-07-13T23:28:07.764Z,8.87
